Time;durP1;ratioP1;P1;durP2;ratioP2;P2;SDS_P1;SDS_P2;PMS_P1;PMS_P2;Temp;Humidity;BMP_temperature;BMP_pressure;BME280_temperature;BME280_humidity;BME280_pressure;Samples;Min_cycle;Max_cycle;Signal;HPM_P1;HPM_P2
2022/06/04 00:00:28;;;;;;;1.80;1.70;;;;;;;14.13;66.45;102089.91;5095501;28;20040;-77
2022/06/04 00:02:53;;;;;;;1.55;1.45;;;;;;;14.12;66.75;102094.34;5080418;28;20044;-78
2022/06/04 00:05:22;;;;;;;2.28;1.70;;;;;;;14.01;66.49;102092.09;5061987;28;20120;-77
2022/06/04 00:07:50;;;;;;;4.07;1.88;;;;;;;14.04;66.38;102092.88;5080126;28;20330;-78
2022/06/04 00:15:49;;;;;;;4.13;2.20;;;;;;;13.97;66.61;102102.75;5081119;28;20085;-77
2022/06/04 00:18:16;;;;;;;7.93;2.42;;;;;;;13.93;66.33;102094.13;5080426;28;20344;-77
2022/06/04 00:20:41;;;;;;;4.32;2.40;;;;;;;13.92;66.39;102089.78;5081331;28;20028;-77
2022/06/04 00:23:09;;;;;;;7.15;2.90;;;;;;;13.92;66.44;102089.78;5062745;28;20044;-77
2022/06/04 00:25:37;;;;;;;4.30;2.60;;;;;;;13.90;66.10;102093.34;5080752;28;20094;-77
2022/06/04 00:28:05;;;;;;;3.55;2.80;;;;;;;13.83;66.04;102087.47;5080522;28;20359;-77
2022/06/04 00:30:31;;;;;;;5.17;2.83;;;;;;;13.79;66.53;102075.31;5080789;28;20040;-77
2022/06/04 00:32:57;;;;;;;3.33;2.90;;;;;;;13.76;66.06;102080.69;5062710;28;20303;-78
2022/06/04 00:35:22;;;;;;;3.95;2.60;;;;;;;13.74;66.04;102096.53;5080092;28;20071;-77
2022/06/04 00:37:49;;;;;;;3.35;2.40;;;;;;;13.75;66.37;102087.72;5080289;28;20041;-77
2022/06/04 00:40:43;;;;;;;2.33;2.13;;;;;;;13.76;66.44;102094.69;5079962;28;20100;-77
2022/06/04 00:43:09;;;;;;;6.88;2.78;;;;;;;13.77;67.34;102100.81;5034977;28;20040;-77
2022/06/04 00:45:34;;;;;;;4.97;2.28;;;;;;;13.68;69.20;102099.38;5080465;28;20044;-77
2022/06/04 00:48:03;;;;;;;2.53;2.30;;;;;;;13.67;69.73;102102.06;5062187;28;20028;-77
2022/06/04 00:50:30;;;;;;;4.35;2.47;;;;;;;13.69;70.15;102094.97;5062315;28;20332;-77
2022/06/04 00:52:59;;;;;;;3.15;2.80;;;;;;;13.63;70.73;102106.56;5080608;28;20340;-77
2022/06/04 00:55:32;;;;;;;4.43;2.97;;;;;;;13.60;70.99;102099.63;5078736;28;20043;-77
2022/06/04 00:58:28;;;;;;;5.35;2.80;;;;;;;13.55;71.21;102096.31;5062415;28;20052;-77
2022/06/04 01:01:14;;;;;;;5.13;2.83;;;;;;;13.52;71.41;102099.03;5080070;28;20078;-77
2022/06/04 01:04:04;;;;;;;4.85;3.17;;;;;;;13.52;71.96;102101.66;5079851;28;20173;-77
2022/06/04 01:06:52;;;;;;;3.80;2.55;;;;;;;13.48;72.48;102110.56;5062186;28;20052;-77
2022/06/04 01:09:41;;;;;;;5.30;3.33;;;;;;;13.44;72.53;102103.66;5079968;28;20043;-77
2022/06/04 01:12:20;;;;;;;6.60;3.63;;;;;;;13.40;73.17;102116.06;5079326;28;20040;-77
2022/06/04 01:14:48;;;;;;;7.32;3.22;;;;;;;13.42;73.42;102116.91;5080482;28;20319;-77
2022/06/04 01:17:48;;;;;;;7.27;3.30;;;;;;;13.40;73.81;102123.09;5078941;28;20052;-77
2022/06/04 01:20:18;;;;;;;3.40;3.10;;;;;;;13.37;74.05;102120.56;5079516;28;20099;-77
2022/06/04 01:22:50;;;;;;;6.30;3.60;;;;;;;13.33;74.41;102124.19;5079800;28;20387;-77
2022/06/04 01:25:37;;;;;;;4.10;3.63;;;;;;;13.28;74.88;102131.34;5079309;28;20068;-77
2022/06/04 01:28:04;;;;;;;5.90;3.50;;;;;;;13.23;75.03;102134.13;5079415;28;20036;-77
2022/06/04 01:30:39;;;;;;;7.22;4.30;;;;;;;13.23;75.41;102137.63;5061703;28;20062;-77
2022/06/04 01:33:20;;;;;;;5.28;3.70;;;;;;;13.21;75.49;102142.06;5061636;28;20024;-77
2022/06/04 01:35:48;;;;;;;5.38;3.55;;;;;;;13.24;75.50;102144.63;5080027;28;20263;-77
2022/06/04 01:38:27;;;;;;;4.18;3.42;;;;;;;13.20;75.83;102135.06;5078970;28;20032;-77
2022/06/04 01:41:04;;;;;;;4.72;3.72;;;;;;;13.20;75.53;102137.69;5079865;28;20276;-77
2022/06/04 01:44:00;;;;;;;4.85;3.65;;;;;;;13.20;75.51;102152.63;5078778;28;20042;-77
2022/06/04 01:46:39;;;;;;;5.22;3.45;;;;;;;13.19;75.42;102153.56;5065881;28;20425;-77
2022/06/04 01:49:13;;;;;;;4.13;3.55;;;;;;;13.21;75.30;102154.38;5079296;28;20096;-77
2022/06/04 01:51:38;;;;;;;4.70;3.50;;;;;;;13.19;75.26;102162.31;5079771;28;20028;-77
2022/06/04 01:54:20;;;;;;;3.92;3.42;;;;;;;13.19;74.74;102158.81;5077876;28;20028;-77
2022/06/04 01:56:55;;;;;;;7.93;3.90;;;;;;;13.19;74.59;102150.94;5079476;28;20068;-77
2022/06/04 01:59:27;;;;;;;13.02;4.35;;;;;;;13.20;74.19;102134.22;5078754;28;20066;-77
2022/06/04 02:01:57;;;;;;;6.22;4.10;;;;;;;13.18;73.47;102150.03;5079496;28;20046;-77
2022/06/04 02:04:27;;;;;;;5.18;3.63;;;;;;;13.17;73.17;102150.09;5078905;28;20040;-77
2022/06/04 02:09:45;;;;;;;7.10;3.85;;;;;;;13.06;73.12;102138.16;5079054;28;20441;-77
2022/06/04 02:12:12;;;;;;;5.57;3.20;;;;;;;13.07;72.74;102139.00;5078687;28;20040;-77
2022/06/04 02:14:39;;;;;;;4.63;3.72;;;;;;;13.02;72.65;102139.16;5079115;28;20040;-77
2022/06/04 02:17:07;;;;;;;7.05;4.00;;;;;;;13.04;72.56;102147.84;5083454;28;20051;-77
2022/06/04 02:19:32;;;;;;;6.20;3.60;;;;;;;12.99;72.34;102151.53;5099880;28;20391;-77
2022/06/04 02:21:58;;;;;;;5.38;3.75;;;;;;;12.96;72.55;102152.47;5099547;28;20028;-77
2022/06/04 02:24:24;;;;;;;7.07;4.15;;;;;;;12.93;72.79;102146.44;5099082;28;20255;-77
2022/06/04 02:26:49;;;;;;;4.65;4.20;;;;;;;12.90;72.76;102159.66;5099548;28;20040;-77
2022/06/04 02:29:16;;;;;;;7.03;4.30;;;;;;;12.87;72.81;102152.75;5099379;28;20319;-77
2022/06/04 02:31:56;;;;;;;6.32;4.20;;;;;;;12.81;72.84;102145.91;5103608;28;20044;-77
2022/06/04 02:34:32;;;;;;;6.30;4.13;;;;;;;12.77;72.94;102154.78;5102840;28;20032;-76
2022/06/04 02:37:07;;;;;;;5.85;3.70;;;;;;;12.75;72.94;102158.34;5102111;28;20040;-76
2022/06/04 02:39:44;;;;;;;5.07;3.75;;;;;;;12.70;73.08;102161.13;5084808;28;20026;-76
2022/06/04 02:42:23;;;;;;;5.55;3.80;;;;;;;12.72;73.05;102148.78;5082164;28;20060;-75
2022/06/04 02:45:00;;;;;;;4.78;3.95;;;;;;;12.73;73.09;102150.50;5082164;28;20040;-75
2022/06/04 02:47:53;;;;;;;4.80;4.20;;;;;;;12.71;72.92;102130.44;5082020;28;20091;-74
2022/06/04 02:50:27;;;;;;;4.35;3.95;;;;;;;12.68;73.21;102119.09;5081593;28;20032;-74
2022/06/04 02:52:55;;;;;;;7.15;3.90;;;;;;;12.67;73.67;102125.25;5082421;28;20095;-75
2022/06/04 02:55:27;;;;;;;6.20;3.53;;;;;;;12.66;73.52;102117.41;5081544;28;20048;-75
2022/06/04 02:57:58;;;;;;;6.57;4.15;;;;;;;12.66;73.65;102123.56;5082252;28;20095;-75
2022/06/04 03:00:25;;;;;;;4.35;3.72;;;;;;;12.62;73.81;102126.31;5081421;28;20032;-74
2022/06/04 03:02:51;;;;;;;4.00;3.65;;;;;;;12.64;73.70;102116.59;5081881;28;20232;-75
2022/06/04 03:05:20;;;;;;;4.10;3.72;;;;;;;12.63;73.80;102118.38;5081557;28;20056;-74
2022/06/04 03:07:48;;;;;;;;;;;;;;;12.59;74.03;102114.13;5082198;28;20028;-75
2022/06/04 03:10:18;;;;;;;4.63;3.72;;;;;;;12.60;74.38;102112.34;5081319;28;19908;-75
2022/06/04 03:12:43;;;;;;;10.80;5.00;;;;;;;12.62;74.05;102115.78;5081902;28;20039;-75
2022/06/04 03:15:10;;;;;;;5.10;4.18;;;;;;;12.58;74.53;102104.50;5063485;28;20068;-75
2022/06/04 03:17:36;;;;;;;6.72;4.50;;;;;;;12.59;74.60;102110.66;5077987;28;20355;-75
2022/06/04 03:20:02;;;;;;;6.47;4.40;;;;;;;12.58;74.34;102122.91;5061565;28;20059;-75
2022/06/04 03:22:27;;;;;;;4.15;3.72;;;;;;;12.61;74.76;102132.47;5082926;28;20035;-74
2022/06/04 03:24:52;;;;;;;4.80;4.18;;;;;;;12.61;74.51;102135.97;5100869;28;20064;-75
2022/06/04 03:27:18;;;;;;;9.13;4.30;;;;;;;12.58;74.64;102125.53;5080164;28;20040;-75
2022/06/04 03:29:44;;;;;;;4.95;3.90;;;;;;;12.54;74.53;102123.03;5100084;28;20036;-74
2022/06/04 03:32:09;;;;;;;6.88;3.83;;;;;;;12.54;74.86;102117.78;5099929;28;20097;-75
2022/06/04 03:34:35;;;;;;;12.40;4.18;;;;;;;12.53;74.77;102121.31;5081217;28;20041;-75
2022/06/04 03:37:00;;;;;;;7.53;4.40;;;;;;;12.50;74.68;102119.66;5059198;28;20063;-74
2022/06/04 03:39:25;;;;;;;5.10;4.43;;;;;;;12.44;75.09;102115.44;5059410;28;20037;-75
2022/06/04 03:41:51;;;;;;;7.05;4.22;;;;;;;12.44;75.20;102106.66;5059430;28;20329;-75
2022/06/04 03:44:16;;;;;;;5.10;3.80;;;;;;;12.44;75.26;102111.91;5058635;28;20229;-74
2022/06/04 03:46:41;;;;;;;5.43;4.13;;;;;;;12.42;74.96;102114.56;5059109;28;20103;-75
2022/06/04 03:49:07;;;;;;;7.13;4.43;;;;;;;12.41;75.12;102102.38;5059073;28;20052;-74
2022/06/04 03:51:32;;;;;;;7.45;4.60;;;;;;;12.39;74.95;102106.81;5059637;28;20025;-75
2022/06/04 03:53:58;;;;;;;4.65;4.13;;;;;;;12.44;74.98;102114.53;5059579;28;20406;-75
2022/06/04 03:56:24;;;;;;;4.93;4.18;;;;;;;12.40;75.48;102111.13;5059294;28;20044;-75
2022/06/04 03:58:50;;;;;;;7.40;4.40;;;;;;;12.42;75.62;102111.09;5058979;28;20059;-75
2022/06/04 04:01:22;;;;;;;8.13;4.45;;;;;;;12.42;75.58;102113.72;5058919;28;20036;-75
2022/06/04 04:03:49;;;;;;;6.88;4.68;;;;;;;12.36;75.92;102119.16;5059752;28;20037;-74
2022/06/04 04:06:20;;;;;;;5.15;4.13;;;;;;;12.35;76.36;102125.31;5058602;28;20112;-75
2022/06/04 04:08:46;;;;;;;8.68;4.70;;;;;;;12.36;75.76;102129.66;5058980;28;20037;-75
2022/06/04 04:11:14;;;;;;;8.43;4.35;;;;;;;12.32;76.17;102128.03;5058444;28;20045;-75
2022/06/04 04:13:41;;;;;;;4.53;4.07;;;;;;;12.27;76.73;102121.13;5059640;28;20120;-74
2022/06/04 04:16:08;;;;;;;5.15;4.65;;;;;;;12.21;76.80;102110.81;5040617;28;20247;-75
2022/06/04 04:18:34;;;;;;;7.25;4.38;;;;;;;12.20;76.74;102116.09;5058882;28;20064;-75
2022/06/04 04:21:23;;;;;;;5.05;4.53;;;;;;;12.14;76.91;102119.75;5064471;28;20404;-74
2022/06/04 04:23:49;;;;;;;6.25;5.20;;;;;;;12.17;77.16;102124.03;5098592;28;20064;-75
2022/06/04 04:26:15;;;;;;;8.70;4.63;;;;;;;12.16;77.01;102133.69;5075640;28;20287;-75
2022/06/04 04:28:41;;;;;;;6.47;4.82;;;;;;;12.16;77.01;102130.22;5058557;28;20221;-74
2022/06/04 04:31:16;;;;;;;8.23;5.05;;;;;;;12.10;77.23;102123.38;5058094;28;20108;-75
2022/06/04 04:33:42;;;;;;;9.25;5.13;;;;;;;12.03;77.71;102127.91;5040350;28;20028;-75
2022/06/04 04:36:07;;;;;;;8.60;5.45;;;;;;;12.04;77.28;102131.38;5056323;28;20041;-74
2022/06/04 04:38:33;;;;;;;11.30;5.15;;;;;;;12.03;77.25;102122.66;5057725;28;20178;-75
2022/06/04 04:40:58;;;;;;;7.25;4.85;;;;;;;12.05;77.18;102131.34;5040513;28;20033;-75
2022/06/04 04:43:24;;;;;;;7.93;4.68;;;;;;;12.09;77.54;102122.47;5039921;28;20036;-74
2022/06/04 04:45:50;;;;;;;8.85;5.00;;;;;;;12.09;78.00;102124.25;5058135;28;20041;-74
2022/06/04 04:48:15;;;;;;;9.82;5.57;;;;;;;12.10;77.98;102131.25;5057866;28;20036;-74
2022/06/04 04:50:47;;;;;;;6.28;4.72;;;;;;;12.13;78.05;102141.66;5058494;28;20075;-74
2022/06/04 04:53:13;;;;;;;6.40;4.95;;;;;;;12.14;78.25;102138.13;5057158;28;20043;-74
2022/06/04 04:55:39;;;;;;;6.03;5.45;;;;;;;12.15;78.66;102131.09;5058180;28;20041;-75
2022/06/04 04:58:05;;;;;;;9.60;5.10;;;;;;;12.14;78.37;102140.75;5057273;28;20041;-74
2022/06/04 05:00:31;;;;;;;7.85;4.97;;;;;;;12.13;78.42;102141.66;5057804;28;20051;-74
2022/06/04 05:02:58;;;;;;;6.63;4.75;;;;;;;12.16;77.88;102138.94;5057833;28;20033;-74
2022/06/04 05:05:24;;;;;;;11.55;4.63;;;;;;;12.21;77.25;102141.47;5057600;28;20471;-75
2022/06/04 05:07:50;;;;;;;7.55;4.25;;;;;;;12.23;76.78;102137.03;5058251;28;20332;-74
2022/06/04 05:10:15;;;;;;;8.98;4.32;;;;;;;12.26;76.75;102129.03;5057894;28;20037;-74
2022/06/04 05:12:41;;;;;;;10.15;4.47;;;;;;;12.26;76.56;102124.69;5078174;28;20058;-75
2022/06/04 05:15:07;;;;;;;13.48;4.60;;;;;;;12.28;76.08;102137.78;5077240;28;20040;-75
2022/06/04 05:17:33;;;;;;;8.07;4.20;;;;;;;12.30;76.62;102128.09;5076673;28;20355;-75
2022/06/04 05:19:58;;;;;;;5.00;4.20;;;;;;;12.33;76.76;102132.38;5078043;28;20107;-75
2022/06/04 05:22:23;;;;;;;7.78;4.05;;;;;;;12.37;76.92;102126.13;5058493;28;20062;-74
2022/06/04 05:24:49;;;;;;;8.45;4.20;;;;;;;12.41;77.08;102127.78;5077680;28;20044;-75
2022/06/04 05:27:14;;;;;;;7.15;4.43;;;;;;;12.45;76.95;102130.28;5059136;28;20051;-75
2022/06/04 05:29:40;;;;;;;7.82;3.65;;;;;;;12.51;76.34;102134.50;5077274;28;20036;-75
2022/06/04 05:32:07;;;;;;;4.60;3.83;;;;;;;12.55;75.95;102135.25;5076746;28;20362;-75
2022/06/04 05:34:33;;;;;;;5.25;3.85;;;;;;;12.58;75.55;102137.81;5075880;28;20043;-75
2022/06/04 05:37:01;;;;;;;6.65;4.05;;;;;;;12.61;75.12;102138.59;5077198;28;20041;-75
2022/06/04 05:39:26;;;;;;;8.55;4.07;;;;;;;12.63;74.41;102139.41;5076958;28;20040;-75
2022/06/04 05:41:52;;;;;;;5.72;3.72;;;;;;;12.66;74.10;102138.44;5076505;28;20040;-74
2022/06/04 05:44:18;;;;;;;10.35;4.25;;;;;;;12.67;74.08;102124.41;5058622;28;20086;-74
2022/06/04 05:46:44;;;;;;;8.50;4.00;;;;;;;12.68;74.07;102126.13;5079625;28;20032;-75
2022/06/04 05:49:11;;;;;;;6.35;4.15;;;;;;;12.71;74.01;102131.28;5097559;28;20088;-74
2022/06/04 05:51:38;;;;;;;7.20;3.38;;;;;;;12.72;73.96;102138.28;5097520;28;20040;-75
2022/06/04 05:54:04;;;;;;;10.15;3.95;;;;;;;12.74;74.03;102148.75;5082685;28;20037;-74
2022/06/04 05:56:37;;;;;;;9.52;4.10;;;;;;;12.76;74.25;102146.94;5077636;28;20114;-74
2022/06/04 05:59:08;;;;;;;9.30;4.05;;;;;;;12.80;74.35;102159.94;5075947;28;20329;-74
2022/06/04 06:01:35;;;;;;;5.85;4.03;;;;;;;12.83;74.58;102153.75;5076950;28;20043;-75
2022/06/04 06:04:01;;;;;;;5.38;4.03;;;;;;;12.81;74.37;102152.94;5079147;28;20447;-74
2022/06/04 06:06:34;;;;;;;10.45;4.90;;;;;;;12.83;74.39;102161.63;5078970;28;20036;-74
2022/06/04 06:09:04;;;;;;;4.63;3.67;;;;;;;12.82;74.59;102154.63;5088010;28;20347;-74
2022/06/04 06:11:30;;;;;;;11.43;4.03;;;;;;;12.81;75.08;102158.19;5085254;28;20055;-74
2022/06/04 06:13:56;;;;;;;7.85;3.97;;;;;;;12.82;74.81;102152.91;5080373;28;20043;-75
2022/06/04 06:16:25;;;;;;;6.38;4.40;;;;;;;12.82;75.18;102160.78;5058307;28;20123;-75
2022/06/04 06:18:51;;;;;;;7.35;3.80;;;;;;;12.85;74.85;102158.03;5076810;28;20213;-74
2022/06/04 06:21:20;;;;;;;7.22;3.85;;;;;;;12.86;75.16;102169.41;5089529;28;20054;-75
2022/06/04 06:23:45;;;;;;;9.05;4.57;;;;;;;12.85;74.92;102176.44;5076291;28;20028;-74
2022/06/04 06:26:17;;;;;;;7.85;4.30;;;;;;;12.83;75.10;102178.25;5077519;28;20055;-75
2022/06/04 06:28:43;;;;;;;6.70;4.50;;;;;;;12.84;75.35;102174.75;5084016;28;20032;-75
2022/06/04 06:31:11;;;;;;;11.88;4.78;;;;;;;12.84;75.29;102179.13;5077968;28;20328;-74
2022/06/04 06:33:37;;;;;;;12.17;5.03;;;;;;;12.86;75.30;102186.06;5074443;28;20258;-75
2022/06/04 06:36:08;;;;;;;10.00;4.40;;;;;;;12.86;75.44;102188.69;5078847;28;20291;-74
2022/06/04 06:38:34;;;;;;;12.52;5.70;;;;;;;12.89;75.41;102202.66;5077094;28;20040;-74
2022/06/04 06:41:01;;;;;;;9.13;4.95;;;;;;;12.91;75.21;102208.72;5080765;28;20044;-74
2022/06/04 06:43:33;;;;;;;7.85;4.40;;;;;;;12.92;75.41;102208.69;5087748;28;20055;-75
2022/06/04 06:46:07;;;;;;;11.75;4.40;;;;;;;12.94;75.37;102206.88;5071193;28;20060;-74
2022/06/04 06:48:33;;;;;;;7.18;4.53;;;;;;;12.97;75.20;102212.06;5078469;28;20397;-74
2022/06/04 06:51:12;;;;;;;6.85;4.47;;;;;;;12.98;75.51;102219.03;5076597;28;20027;-74
2022/06/04 06:53:37;;;;;;;11.45;4.95;;;;;;;13.02;75.24;102225.06;5057653;28;20039;-74
2022/06/04 06:56:14;;;;;;;16.05;5.05;;;;;;;13.05;75.50;102217.09;5075903;28;20037;-75
2022/06/04 06:58:40;;;;;;;6.00;4.40;;;;;;;13.07;75.40;102218.75;5078865;28;20304;-75
2022/06/04 07:01:06;;;;;;;8.85;4.80;;;;;;;13.07;75.10;102218.75;5087158;28;20040;-74
2022/06/04 07:03:33;;;;;;;8.55;4.85;;;;;;;13.07;75.00;102225.78;5086493;28;20040;-75
2022/06/04 07:05:59;;;;;;;8.52;4.78;;;;;;;13.07;75.12;102217.91;5069853;28;20251;-75
2022/06/04 07:08:25;;;;;;;10.80;4.78;;;;;;;13.10;75.45;102216.94;5068297;28;20324;-75
2022/06/04 07:10:51;;;;;;;7.05;5.00;;;;;;;13.11;75.24;102211.63;5079554;28;20044;-75
2022/06/04 07:13:16;;;;;;;4.85;4.35;;;;;;;13.12;75.43;102223.88;5065608;28;20299;-74
2022/06/04 07:15:43;;;;;;;5.35;4.30;;;;;;;13.15;75.28;102215.03;5055107;28;20052;-75
2022/06/04 07:18:11;;;;;;;8.35;5.28;;;;;;;13.17;75.35;102214.09;5068672;28;20263;-75
2022/06/04 07:20:38;;;;;;;12.23;5.10;;;;;;;13.19;75.31;102219.31;5087486;28;20259;-75
2022/06/04 07:23:04;;;;;;;6.47;4.45;;;;;;;13.23;75.88;102213.06;5090147;28;20275;-75
2022/06/04 07:25:29;;;;;;;5.90;4.88;;;;;;;13.27;75.66;102216.47;5076338;28;20140;-75
2022/06/04 07:27:54;;;;;;;9.38;4.50;;;;;;;13.33;75.16;102224.19;5079805;28;20055;-75
2022/06/04 07:30:20;;;;;;;8.85;4.70;;;;;;;13.37;75.33;102233.69;5064254;28;20032;-75
2022/06/04 07:32:45;;;;;;;8.23;4.50;;;;;;;13.42;75.04;102226.53;5079051;28;20393;-75
2022/06/04 07:35:11;;;;;;;6.35;4.82;;;;;;;13.45;74.70;102226.44;5080625;28;20047;-75
2022/06/04 07:37:36;;;;;;;6.78;4.40;;;;;;;13.47;74.58;102214.09;5081198;28;20086;-76
2022/06/04 07:40:02;;;;;;;9.40;4.47;;;;;;;13.50;74.67;102208.75;5060549;28;20063;-75
2022/06/04 07:42:28;;;;;;;9.88;4.70;;;;;;;13.55;74.79;102192.78;5067813;28;20040;-75
2022/06/04 07:44:53;;;;;;;5.53;4.13;;;;;;;13.56;74.73;102191.91;5080744;28;20154;-75
2022/06/04 07:47:19;;;;;;;4.90;4.10;;;;;;;13.58;74.85;102188.31;5078829;28;20036;-75
2022/06/04 07:49:44;;;;;;;8.20;4.80;;;;;;;13.62;74.73;102191.69;5078746;28;20044;-75
2022/06/04 07:52:10;;;;;;;7.55;4.60;;;;;;;13.67;75.00;102191.56;5068968;28;20217;-75
2022/06/04 07:54:35;;;;;;;7.68;4.55;;;;;;;13.72;74.61;102198.41;5072442;28;20320;-75
2022/06/04 07:57:00;;;;;;;8.55;4.82;;;;;;;13.74;74.37;102188.69;5078630;28;20043;-74
2022/06/04 07:59:26;;;;;;;6.13;4.35;;;;;;;13.79;74.29;102199.06;5060988;28;20336;-75
2022/06/04 08:01:52;;;;;;;12.32;4.78;;;;;;;13.84;74.31;102199.75;5080531;28;20036;-75
2022/06/04 08:04:17;;;;;;;9.07;4.88;;;;;;;13.86;73.51;102202.34;5061600;28;20218;-75
2022/06/04 08:06:43;;;;;;;7.03;4.22;;;;;;;13.88;73.54;102203.16;5086772;28;20032;-75
2022/06/04 08:09:09;;;;;;;7.55;4.43;;;;;;;13.89;72.99;102208.38;5078837;28;20036;-74
2022/06/04 08:11:35;;;;;;;8.40;4.18;;;;;;;13.90;72.80;102210.09;5064907;28;20059;-75
2022/06/04 08:14:06;;;;;;;6.53;4.53;;;;;;;13.91;72.87;102211.81;5080110;28;20453;-75
2022/06/04 08:16:33;;;;;;;8.70;4.22;;;;;;;13.95;73.40;102217.84;5060620;28;20066;-75
2022/06/04 08:18:59;;;;;;;7.88;4.15;;;;;;;13.98;73.18;102215.97;5060668;28;20048;-75
2022/06/04 08:21:24;;;;;;;6.80;4.18;;;;;;;13.99;73.48;102215.06;5069716;28;20227;-75
2022/06/04 08:23:50;;;;;;;5.35;4.30;;;;;;;14.01;73.29;102209.75;5092051;28;20083;-75
2022/06/04 08:26:15;;;;;;;6.05;3.90;;;;;;;14.03;73.51;102213.19;5050401;28;20040;-75
2022/06/04 08:28:41;;;;;;;8.35;4.25;;;;;;;14.05;73.28;102218.41;5090833;28;20040;-75
2022/06/04 08:31:13;;;;;;;6.40;5.07;;;;;;;14.06;73.06;102225.41;5086647;28;20047;-75
2022/06/04 08:33:39;;;;;;;8.52;3.90;;;;;;;14.05;72.79;102232.44;5080822;28;20267;-75
2022/06/04 08:36:07;;;;;;;9.57;4.05;;;;;;;14.05;73.06;102232.44;5069554;28;20035;-75
2022/06/04 08:38:33;;;;;;;8.02;4.30;;;;;;;14.06;73.25;102233.28;5081528;28;20048;-75
2022/06/04 08:41:02;;;;;;;7.43;4.50;;;;;;;14.06;73.24;102225.41;5060102;28;20056;-75
2022/06/04 08:43:30;;;;;;;7.47;4.25;;;;;;;14.08;73.26;102235.00;5081877;28;20102;-75
2022/06/04 08:45:56;;;;;;;4.90;3.70;;;;;;;14.09;72.74;102236.69;5077982;28;20043;-75
2022/06/04 08:48:29;;;;;;;10.93;4.22;;;;;;;14.12;73.26;102233.97;5081871;28;20032;-75
2022/06/04 08:50:55;;;;;;;5.68;4.00;;;;;;;14.12;73.22;102223.44;5080074;28;20033;-75
2022/06/04 08:53:24;;;;;;;5.32;3.72;;;;;;;14.14;73.07;102228.66;5077507;28;20460;-75
2022/06/04 08:59:10;;;;;;;10.18;4.38;;;;;;;14.18;73.05;102230.25;5080741;28;20098;-75
2022/06/04 09:01:40;;;;;;;7.78;4.10;;;;;;;14.22;74.33;102234.50;5079868;28;20039;-76
2022/06/04 09:04:30;;;;;;;9.13;4.20;;;;;;;14.26;74.37;102230.88;5073986;28;20096;-75
2022/06/04 09:07:05;;;;;;;5.85;4.50;;;;;;;14.29;74.46;102243.94;5068328;28;20028;-75
2022/06/04 09:09:45;;;;;;;10.05;5.25;;;;;;;14.29;74.93;102243.06;5065748;28;20216;-75
2022/06/04 09:12:28;;;;;;;7.60;4.20;;;;;;;14.33;74.93;102242.03;5080737;28;20389;-75
2022/06/04 09:15:00;;;;;;;7.88;4.90;;;;;;;14.36;75.09;102234.91;5087972;28;20370;-75
2022/06/04 09:17:44;;;;;;;9.90;4.78;;;;;;;14.40;74.89;102238.28;5071220;28;20043;-75
2022/06/04 09:20:19;;;;;;;4.70;4.25;;;;;;;14.40;74.88;102233.03;5093117;28;20052;-75
2022/06/04 09:22:47;;;;;;;10.63;5.30;;;;;;;14.43;74.72;102232.06;5077790;28;20147;-75
2022/06/04 09:25:21;;;;;;;8.25;4.82;;;;;;;14.45;74.55;102238.16;5083034;28;20051;-75
2022/06/04 09:28:02;;;;;;;7.13;4.90;;;;;;;14.47;74.76;102234.53;5078834;28;20285;-75
2022/06/04 09:30:45;;;;;;;8.23;4.47;;;;;;;14.50;74.94;102231.78;5068816;28;20028;-75
2022/06/04 09:33:40;;;;;;;7.57;4.90;;;;;;;14.49;74.69;102234.47;5078723;28;20340;-75
2022/06/04 09:36:11;;;;;;;7.93;4.60;;;;;;;14.52;74.91;102231.75;5065466;28;20321;-75
2022/06/04 09:38:37;;;;;;;7.05;4.68;;;;;;;14.53;74.73;102231.66;5055978;28;20163;-75
2022/06/04 09:41:18;;;;;;;10.82;5.20;;;;;;;14.57;75.07;102238.59;5078096;28;20316;-75
2022/06/04 09:43:58;;;;;;;6.75;4.60;;;;;;;14.61;75.22;102234.09;5077997;28;20044;-75
2022/06/04 09:46:25;;;;;;;6.75;4.95;;;;;;;14.65;74.93;102248.03;5092512;28;20062;-76
2022/06/04 09:48:52;;;;;;;12.85;5.43;;;;;;;14.68;74.90;102245.25;5081088;28;20082;-75
2022/06/04 09:51:21;;;;;;;10.98;5.80;;;;;;;14.70;74.22;102244.31;5077939;28;20040;-75
2022/06/04 09:54:02;;;;;;;9.55;4.78;;;;;;;14.70;74.79;102232.91;5059689;28;20116;-75
2022/06/04 09:56:42;;;;;;;6.55;5.00;;;;;;;14.72;74.34;102234.56;5089798;28;20055;-75
2022/06/04 09:59:18;;;;;;;6.03;4.90;;;;;;;14.73;74.47;102227.50;5060432;28;20028;-75
2022/06/04 10:02:12;;;;;;;6.80;4.80;;;;;;;14.76;74.65;102227.41;5074982;28;20028;-75
2022/06/04 10:04:40;;;;;;;6.25;4.85;;;;;;;14.79;74.07;102227.31;5060147;28;20332;-75
2022/06/04 10:07:09;;;;;;;7.93;5.10;;;;;;;14.83;74.27;102228.06;5059507;28;20091;-75
2022/06/04 10:13:42;;;;;;;11.05;5.75;;;;;;;14.86;73.78;102239.34;5074199;28;20055;-75
2022/06/04 10:15:18;;;;;;;7.20;5.03;;;;;;;14.87;73.75;102237.56;5089393;28;20043;-75
2022/06/04 10:17:43;;;;;;;9.13;5.00;;;;;;;14.89;73.65;102231.31;5078533;28;20078;-75
2022/06/04 10:20:22;;;;;;;9.18;5.40;;;;;;;14.92;73.72;102232.97;5073706;28;20032;-75
2022/06/04 10:22:52;;;;;;;5.72;5.20;;;;;;;14.93;73.77;102224.13;5088278;28;20362;-75
2022/06/04 10:25:23;;;;;;;6.93;4.93;;;;;;;14.94;73.97;102232.00;5073567;28;20095;-75
2022/06/04 10:28:04;;;;;;;6.82;4.75;;;;;;;14.95;73.42;102222.28;5077372;28;20060;-75
2022/06/04 10:30:43;;;;;;;5.68;5.10;;;;;;;14.97;73.09;102229.25;5083537;28;20375;-75
2022/06/04 10:33:35;;;;;;;11.35;5.45;;;;;;;14.98;73.17;102222.19;5084483;28;20312;-75
2022/06/04 10:36:06;;;;;;;5.30;4.85;;;;;;;15.00;73.15;102225.63;5076885;28;20394;-75
2022/06/04 10:38:43;;;;;;;8.05;5.05;;;;;;;15.04;73.68;102231.66;5070572;28;20099;-75
2022/06/04 10:41:31;;;;;;;16.55;5.35;;;;;;;15.06;73.80;102230.69;5081365;28;20422;-74
2022/06/04 10:44:09;;;;;;;6.55;5.30;;;;;;;15.08;73.25;102231.50;5079254;28;20350;-75
2022/06/04 10:46:58;;;;;;;8.90;5.30;;;;;;;15.10;73.10;102234.09;5077518;28;20106;-75
2022/06/04 10:49:41;;;;;;;7.45;5.03;;;;;;;15.12;73.64;102233.09;5078652;28;20745;-75
2022/06/04 10:52:22;;;;;;;9.73;5.32;;;;;;;15.14;74.14;102228.63;5080686;28;20032;-75
2022/06/04 10:55:15;;;;;;;6.75;5.50;;;;;;;15.16;74.95;102236.47;5051875;28;20371;-75
2022/06/04 10:57:46;;;;;;;10.95;5.28;;;;;;;15.17;75.47;102238.19;5096815;28;20039;-75
2022/06/04 11:00:18;;;;;;;6.85;6.05;;;;;;;15.18;75.64;102239.06;5058464;28;20112;-75
2022/06/04 11:02:56;;;;;;;9.32;6.22;;;;;;;15.15;76.02;102235.63;5090177;28;20063;-75
2022/06/04 11:05:32;;;;;;;10.67;6.43;;;;;;;15.14;76.08;102244.44;5061817;28;20033;-75
2022/06/04 11:08:26;;;;;;;7.70;6.00;;;;;;;15.14;75.86;102240.97;5080385;28;20401;-75
2022/06/04 11:11:03;;;;;;;7.93;5.97;;;;;;;15.14;75.94;102235.69;5066129;28;20048;-75
2022/06/04 11:13:36;;;;;;;11.77;5.80;;;;;;;15.13;76.22;102229.56;5080084;28;20037;-75
2022/06/04 11:16:04;;;;;;;7.90;5.97;;;;;;;15.18;76.38;102245.19;5085132;28;20358;-75
2022/06/04 11:18:41;;;;;;;8.63;6.00;;;;;;;15.22;76.16;102245.94;5072811;28;20056;-75
2022/06/04 11:21:26;;;;;;;9.80;5.75;;;;;;;15.24;75.37;102247.59;5059370;28;20032;-75
2022/06/04 11:24:02;;;;;;;6.53;5.40;;;;;;;15.27;75.20;102244.00;5078748;28;20036;-75
2022/06/04 11:26:46;;;;;;;8.50;5.90;;;;;;;15.30;75.27;102235.97;5073409;28;20304;-75
2022/06/04 11:29:12;;;;;;;8.65;5.97;;;;;;;15.32;74.80;102237.63;5071699;28;20064;-75
2022/06/04 11:31:57;;;;;;;6.78;6.05;;;;;;;15.34;74.27;102232.28;5066169;28;20051;-75
2022/06/04 11:35:02;;;;;;;8.88;5.63;;;;;;;15.36;74.50;102236.56;5064978;28;20044;-75
2022/06/04 11:37:50;;;;;;;7.47;5.15;;;;;;;15.41;74.80;102246.09;5059227;28;20033;-75
2022/06/04 11:40:31;;;;;;;6.57;5.45;;;;;;;15.45;74.85;102245.91;5060241;28;20041;-75
2022/06/04 11:43:01;;;;;;;9.93;5.85;;;;;;;15.50;74.52;102254.53;5070341;28;20139;-75
2022/06/04 11:45:35;;;;;;;6.18;5.57;;;;;;;15.53;73.87;102251.78;5054112;28;20028;-75
2022/06/04 11:48:15;;;;;;;6.88;5.95;;;;;;;15.57;73.45;102244.56;5059844;28;20375;-75
2022/06/04 11:50:51;;;;;;;6.45;5.80;;;;;;;15.60;73.38;102241.81;5072352;28;20275;-75
2022/06/04 11:53:31;;;;;;;11.98;6.10;;;;;;;15.62;73.67;102229.41;5059088;28;20221;-75
2022/06/04 11:56:13;;;;;;;9.63;5.82;;;;;;;15.67;73.56;102230.09;5062193;28;20051;-75